sensor_id;sensor_type;location;lat;lon;timestamp;pressure;altitude;pressure_sealevel;temperature;humidity
11621;BME280;5866;49.094;11.900;2023-02-04T00:00:06;96910.34;;;5.45;100.00
11621;BME280;5866;49.094;11.900;2023-02-04T00:02:34;96913.31;;;5.41;100.00
11621;BME280;5866;49.094;11.900;2023-02-04T00:05:03;96913.94;;;5.44;100.00
11621;BME280;5866;49.094;11.900;2023-02-04T00:07:31;96910.59;;;5.42;100.00
11621;BME280;5866;49.094;11.900;2023-02-04T00:09:58;96911.06;;;5.47;100.00
11621;BME280;5866;49.094;11.900;2023-02-04T00:12:26;96902.34;;;5.47;100.00
11621;BME280;5866;49.094;11.900;2023-02-04T00:14:55;96904.50;;;5.42;100.00
11621;BME280;5866;49.094;11.900;2023-02-04T00:17:23;96905.81;;;5.47;100.00
11621;BME280;5866;49.094;11.900;2023-02-04T00:19:50;96909.97;;;5.39;100.00
11621;BME280;5866;49.094;11.900;2023-02-04T00:22:18;96919.94;;;5.46;100.00
11621;BME280;5866;49.094;11.900;2023-02-04T00:24:45;96916.69;;;5.43;100.00
11621;BME280;5866;49.094;11.900;2023-02-04T00:27:15;96917.97;;;5.37;100.00
11621;BME280;5866;49.094;11.900;2023-02-04T00:29:43;96929.69;;;5.33;100.00
11621;BME280;5866;49.094;11.900;2023-02-04T00:32:11;96932.31;;;5.33;100.00
11621;BME280;5866;49.094;11.900;2023-02-04T00:34:39;96921.06;;;5.31;100.00
11621;BME280;5866;49.094;11.900;2023-02-04T00:37:07;96940.75;;;5.26;100.00
11621;BME280;5866;49.094;11.900;2023-02-04T00:39:34;96933.75;;;5.37;100.00
11621;BME280;5866;49.094;11.900;2023-02-04T00:42:03;96943.81;;;5.43;100.00
11621;BME280;5866;49.094;11.900;2023-02-04T00:44:31;96909.44;;;5.23;100.00
11621;BME280;5866;49.094;11.900;2023-02-04T00:46:58;96942.31;;;5.28;100.00
11621;BME280;5866;49.094;11.900;2023-02-04T00:49:27;96952.84;;;5.28;100.00
11621;BME280;5866;49.094;11.900;2023-02-04T00:51:54;96960.13;;;5.25;100.00
11621;BME280;5866;49.094;11.900;2023-02-04T00:54:22;96975.50;;;5.18;100.00
11621;BME280;5866;49.094;11.900;2023-02-04T00:56:49;96963.94;;;5.21;100.00
11621;BME280;5866;49.094;11.900;2023-02-04T00:59:17;96976.03;;;5.23;100.00
11621;BME280;5866;49.094;11.900;2023-02-04T01:01:44;96986.25;;;5.15;100.00
11621;BME280;5866;49.094;11.900;2023-02-04T01:04:12;96989.38;;;5.20;100.00
11621;BME280;5866;49.094;11.900;2023-02-04T01:06:41;96997.59;;;5.16;100.00
11621;BME280;5866;49.094;11.900;2023-02-04T01:09:09;96999.28;;;5.17;100.00
11621;BME280;5866;49.094;11.900;2023-02-04T01:11:36;96999.72;;;5.11;100.00
11621;BME280;5866;49.094;11.900;2023-02-04T01:14:04;97004.75;;;5.14;100.00
11621;BME280;5866;49.094;11.900;2023-02-04T01:16:31;97006.53;;;5.13;100.00
11621;BME280;5866;49.094;11.900;2023-02-04T01:18:59;97014.44;;;5.13;100.00
11621;BME280;5866;49.094;11.900;2023-02-04T01:21:26;97029.38;;;5.13;100.00
11621;BME280;5866;49.094;11.900;2023-02-04T01:23:55;97015.50;;;5.11;100.00
11621;BME280;5866;49.094;11.900;2023-02-04T01:26:23;97026.84;;;5.11;100.00
11621;BME280;5866;49.094;11.900;2023-02-04T01:28:51;97024.94;;;5.13;100.00
11621;BME280;5866;49.094;11.900;2023-02-04T01:31:18;97027.69;;;5.12;100.00
11621;BME280;5866;49.094;11.900;2023-02-04T01:33:46;97040.97;;;5.10;100.00
11621;BME280;5866;49.094;11.900;2023-02-04T01:36:14;97045.50;;;5.08;100.00
11621;BME280;5866;49.094;11.900;2023-02-04T01:38:46;97045.91;;;5.02;100.00
11621;BME280;5866;49.094;11.900;2023-02-04T01:41:16;97045.16;;;5.13;100.00
11621;BME280;5866;49.094;11.900;2023-02-04T01:43:45;97042.13;;;5.06;100.00
11621;BME280;5866;49.094;11.900;2023-02-04T01:46:13;97046.84;;;5.01;100.00
11621;BME280;5866;49.094;11.900;2023-02-04T01:48:41;97047.38;;;5.06;100.00
11621;BME280;5866;49.094;11.900;2023-02-04T01:51:11;97048.34;;;4.93;100.00
11621;BME280;5866;49.094;11.900;2023-02-04T01:53:40;97036.56;;;4.98;100.00
11621;BME280;5866;49.094;11.900;2023-02-04T01:56:14;97045.06;;;5.02;100.00
11621;BME280;5866;49.094;11.900;2023-02-04T01:58:44;97040.75;;;5.01;100.00
11621;BME280;5866;49.094;11.900;2023-02-04T02:01:13;97045.41;;;4.97;100.00
11621;BME280;5866;49.094;11.900;2023-02-04T02:03:41;97050.97;;;4.93;100.00
11621;BME280;5866;49.094;11.900;2023-02-04T02:06:09;97052.56;;;4.95;100.00
11621;BME280;5866;49.094;11.900;2023-02-04T02:08:37;97060.22;;;4.98;100.00
11621;BME280;5866;49.094;11.900;2023-02-04T02:11:05;97055.78;;;4.99;100.00
11621;BME280;5866;49.094;11.900;2023-02-04T02:13:32;97063.69;;;4.99;100.00
11621;BME280;5866;49.094;11.900;2023-02-04T02:16:01;97058.34;;;5.00;100.00
11621;BME280;5866;49.094;11.900;2023-02-04T02:18:29;97064.75;;;4.96;100.00
11621;BME280;5866;49.094;11.900;2023-02-04T02:20:59;97065.19;;;4.90;100.00
11621;BME280;5866;49.094;11.900;2023-02-04T02:23:45;97073.56;;;4.95;100.00
11621;BME280;5866;49.094;11.900;2023-02-04T02:26:14;97068.31;;;4.95;100.00
11621;BME280;5866;49.094;11.900;2023-02-04T02:28:42;97062.22;;;4.95;100.00
11621;BME280;5866;49.094;11.900;2023-02-04T02:31:10;97076.22;;;4.95;100.00
11621;BME280;5866;49.094;11.900;2023-02-04T02:33:38;97065.94;;;4.92;100.00
11621;BME280;5866;49.094;11.900;2023-02-04T02:36:06;97062.88;;;4.86;100.00
11621;BME280;5866;49.094;11.900;2023-02-04T02:38:33;97051.72;;;4.82;100.00
11621;BME280;5866;49.094;11.900;2023-02-04T02:41:03;97067.28;;;4.85;100.00
11621;BME280;5866;49.094;11.900;2023-02-04T02:43:31;97087.59;;;4.83;100.00
11621;BME280;5866;49.094;11.900;2023-02-04T02:45:59;97073.47;;;4.84;100.00
11621;BME280;5866;49.094;11.900;2023-02-04T02:48:27;97083.47;;;4.79;100.00
11621;BME280;5866;49.094;11.900;2023-02-04T02:50:55;97089.97;;;4.86;100.00
11621;BME280;5866;49.094;11.900;2023-02-04T02:53:22;97079.81;;;4.94;100.00
11621;BME280;5866;49.094;11.900;2023-02-04T02:55:50;97072.75;;;4.82;100.00
11621;BME280;5866;49.094;11.900;2023-02-04T02:58:23;97093.16;;;4.91;100.00
11621;BME280;5866;49.094;11.900;2023-02-04T03:00:52;97089.16;;;4.86;100.00
11621;BME280;5866;49.094;11.900;2023-02-04T03:03:22;97108.91;;;4.91;100.00
11621;BME280;5866;49.094;11.900;2023-02-04T03:05:59;97117.75;;;4.90;100.00
11621;BME280;5866;49.094;11.900;2023-02-04T03:08:28;97119.63;;;4.88;100.00
11621;BME280;5866;49.094;11.900;2023-02-04T03:10:55;97124.50;;;4.81;100.00
11621;BME280;5866;49.094;11.900;2023-02-04T03:13:24;97133.84;;;4.86;100.00
11621;BME280;5866;49.094;11.900;2023-02-04T03:15:52;97128.47;;;4.87;100.00
11621;BME280;5866;49.094;11.900;2023-02-04T03:18:20;97125.22;;;4.71;100.00
11621;BME280;5866;49.094;11.900;2023-02-04T03:20:49;97134.78;;;4.72;100.00
11621;BME280;5866;49.094;11.900;2023-02-04T03:23:18;97139.59;;;4.78;100.00
11621;BME280;5866;49.094;11.900;2023-02-04T03:25:46;97135.81;;;4.69;100.00
11621;BME280;5866;49.094;11.900;2023-02-04T03:28:14;97157.50;;;4.73;100.00
11621;BME280;5866;49.094;11.900;2023-02-04T03:30:43;97151.91;;;4.65;100.00
11621;BME280;5866;49.094;11.900;2023-02-04T03:33:19;97169.25;;;4.67;100.00
11621;BME280;5866;49.094;11.900;2023-02-04T03:35:46;97178.28;;;4.63;100.00
11621;BME280;5866;49.094;11.900;2023-02-04T03:38:14;97180.41;;;4.71;100.00
11621;BME280;5866;49.094;11.900;2023-02-04T03:40:43;97186.06;;;4.65;100.00
11621;BME280;5866;49.094;11.900;2023-02-04T03:43:11;97188.47;;;4.55;100.00
11621;BME280;5866;49.094;11.900;2023-02-04T03:45:38;97186.34;;;4.48;100.00
11621;BME280;5866;49.094;11.900;2023-02-04T03:48:12;97184.75;;;4.45;100.00
11621;BME280;5866;49.094;11.900;2023-02-04T03:50:40;97190.88;;;4.46;100.00
11621;BME280;5866;49.094;11.900;2023-02-04T03:53:08;97184.78;;;4.58;100.00
11621;BME280;5866;49.094;11.900;2023-02-04T03:55:35;97201.59;;;4.55;100.00
11621;BME280;5866;49.094;11.900;2023-02-04T03:58:03;97202.63;;;4.53;100.00
11621;BME280;5866;49.094;11.900;2023-02-04T04:00:31;97201.03;;;4.50;100.00
11621;BME280;5866;49.094;11.900;2023-02-04T04:02:59;97208.38;;;4.33;100.00
11621;BME280;5866;49.094;11.900;2023-02-04T04:05:28;97205.34;;;4.39;100.00
11621;BME280;5866;49.094;11.900;2023-02-04T04:07:55;97206.91;;;4.41;100.00
11621;BME280;5866;49.094;11.900;2023-02-04T04:10:23;97209.56;;;4.41;100.00
11621;BME280;5866;49.094;11.900;2023-02-04T04:12:50;97213.56;;;4.47;100.00
11621;BME280;5866;49.094;11.900;2023-02-04T04:15:18;97221.72;;;4.42;100.00
11621;BME280;5866;49.094;11.900;2023-02-04T04:17:45;97220.69;;;4.45;100.00
11621;BME280;5866;49.094;11.900;2023-02-04T04:20:13;97230.47;;;4.43;100.00
11621;BME280;5866;49.094;11.900;2023-02-04T04:22:42;97214.59;;;4.44;100.00
11621;BME280;5866;49.094;11.900;2023-02-04T04:25:10;97218.81;;;4.47;100.00
11621;BME280;5866;49.094;11.900;2023-02-04T04:27:38;97211.88;;;4.46;100.00
11621;BME280;5866;49.094;11.900;2023-02-04T04:30:06;97227.63;;;4.46;100.00
11621;BME280;5866;49.094;11.900;2023-02-04T04:32:34;97222.38;;;4.46;100.00
11621;BME280;5866;49.094;11.900;2023-02-04T04:35:02;97229.72;;;4.41;100.00
11621;BME280;5866;49.094;11.900;2023-02-04T04:37:29;97255.34;;;4.37;100.00
11621;BME280;5866;49.094;11.900;2023-02-04T04:39:58;97264.16;;;4.36;100.00
11621;BME280;5866;49.094;11.900;2023-02-04T04:42:26;97269.31;;;4.38;100.00
11621;BME280;5866;49.094;11.900;2023-02-04T04:44:54;97271.34;;;4.47;100.00
11621;BME280;5866;49.094;11.900;2023-02-04T04:47:22;97281.84;;;4.47;100.00
11621;BME280;5866;49.094;11.900;2023-02-04T04:49:49;97294.81;;;4.50;100.00
11621;BME280;5866;49.094;11.900;2023-02-04T04:52:16;97283.28;;;4.38;100.00
11621;BME280;5866;49.094;11.900;2023-02-04T04:54:44;97288.34;;;4.41;100.00
11621;BME280;5866;49.094;11.900;2023-02-04T04:57:13;97289.72;;;4.47;100.00
11621;BME280;5866;49.094;11.900;2023-02-04T04:59:40;97292.75;;;4.41;100.00
11621;BME280;5866;49.094;11.900;2023-02-04T05:02:08;97300.63;;;4.41;100.00
11621;BME280;5866;49.094;11.900;2023-02-04T05:04:35;97304.00;;;4.43;100.00
11621;BME280;5866;49.094;11.900;2023-02-04T05:07:03;97303.91;;;4.44;100.00
11621;BME280;5866;49.094;11.900;2023-02-04T05:09:30;97324.66;;;4.35;100.00
11621;BME280;5866;49.094;11.900;2023-02-04T05:11:58;97305.94;;;4.27;100.00
11621;BME280;5866;49.094;11.900;2023-02-04T05:14:27;97318.09;;;4.28;100.00
11621;BME280;5866;49.094;11.900;2023-02-04T05:16:54;97316.34;;;4.28;100.00
11621;BME280;5866;49.094;11.900;2023-02-04T05:19:22;97325.63;;;4.20;100.00
11621;BME280;5866;49.094;11.900;2023-02-04T05:21:49;97329.84;;;4.22;100.00
11621;BME280;5866;49.094;11.900;2023-02-04T05:24:17;97324.78;;;4.19;100.00
11621;BME280;5866;49.094;11.900;2023-02-04T05:26:44;97336.63;;;4.12;100.00
11621;BME280;5866;49.094;11.900;2023-02-04T05:29:11;97335.78;;;4.12;100.00
11621;BME280;5866;49.094;11.900;2023-02-04T05:31:40;97343.19;;;4.05;100.00
11621;BME280;5866;49.094;11.900;2023-02-04T05:34:08;97345.72;;;4.07;100.00
11621;BME280;5866;49.094;11.900;2023-02-04T05:36:35;97350.03;;;4.08;100.00
11621;BME280;5866;49.094;11.900;2023-02-04T05:39:03;97359.22;;;4.15;100.00
11621;BME280;5866;49.094;11.900;2023-02-04T05:41:30;97369.72;;;4.15;100.00
11621;BME280;5866;49.094;11.900;2023-02-04T05:43:58;97380.78;;;4.20;100.00
11621;BME280;5866;49.094;11.900;2023-02-04T05:46:25;97402.91;;;4.16;100.00
11621;BME280;5866;49.094;11.900;2023-02-04T05:48:54;97438.97;;;2.79;100.00
11621;BME280;5866;49.094;11.900;2023-02-04T05:51:22;97431.78;;;2.03;100.00
11621;BME280;5866;49.094;11.900;2023-02-04T05:53:49;97457.69;;;1.92;100.00
11621;BME280;5866;49.094;11.900;2023-02-04T05:56:16;97469.25;;;1.88;100.00
11621;BME280;5866;49.094;11.900;2023-02-04T05:58:44;97468.97;;;1.93;100.00
11621;BME280;5866;49.094;11.900;2023-02-04T06:01:12;97481.69;;;2.00;100.00
11621;BME280;5866;49.094;11.900;2023-02-04T06:03:39;97482.91;;;2.10;100.00
11621;BME280;5866;49.094;11.900;2023-02-04T06:06:08;97496.84;;;2.11;100.00
11621;BME280;5866;49.094;11.900;2023-02-04T06:08:36;97501.97;;;2.12;100.00
11621;BME280;5866;49.094;11.900;2023-02-04T06:11:04;97492.91;;;2.02;100.00
11621;BME280;5866;49.094;11.900;2023-02-04T06:13:31;97510.91;;;2.08;100.00
11621;BME280;5866;49.094;11.900;2023-02-04T06:15:59;97507.06;;;2.15;100.00
11621;BME280;5866;49.094;11.900;2023-02-04T06:18:26;97511.31;;;2.33;100.00
11621;BME280;5866;49.094;11.900;2023-02-04T06:20:53;97512.84;;;2.22;100.00
11621;BME280;5866;49.094;11.900;2023-02-04T06:23:22;97515.63;;;2.02;100.00
11621;BME280;5866;49.094;11.900;2023-02-04T06:25:50;97532.16;;;2.02;100.00
11621;BME280;5866;49.094;11.900;2023-02-04T06:28:17;97530.28;;;2.38;100.00
11621;BME280;5866;49.094;11.900;2023-02-04T06:30:45;97518.78;;;2.41;100.00
11621;BME280;5866;49.094;11.900;2023-02-04T06:33:12;97533.59;;;2.25;100.00
11621;BME280;5866;49.094;11.900;2023-02-04T06:35:40;97541.13;;;2.31;100.00
11621;BME280;5866;49.094;11.900;2023-02-04T06:38:07;97544.47;;;2.50;100.00
11621;BME280;5866;49.094;11.900;2023-02-04T06:40:36;97542.28;;;2.42;100.00
11621;BME280;5866;49.094;11.900;2023-02-04T06:43:04;97553.16;;;2.18;100.00
11621;BME280;5866;49.094;11.900;2023-02-04T06:45:31;97550.66;;;2.49;100.00
11621;BME280;5866;49.094;11.900;2023-02-04T06:47:59;97561.56;;;2.07;100.00
11621;BME280;5866;49.094;11.900;2023-02-04T06:50:26;97566.94;;;2.04;100.00
11621;BME280;5866;49.094;11.900;2023-02-04T06:52:54;97578.81;;;2.11;100.00
11621;BME280;5866;49.094;11.900;2023-02-04T06:55:22;97576.34;;;2.08;100.00
11621;BME280;5866;49.094;11.900;2023-02-04T06:57:51;97584.59;;;2.01;100.00
11621;BME280;5866;49.094;11.900;2023-02-04T07:00:19;97584.81;;;1.96;100.00
11621;BME280;5866;49.094;11.900;2023-02-04T07:02:46;97595.28;;;1.96;100.00
11621;BME280;5866;49.094;11.900;2023-02-04T07:05:14;97589.41;;;1.91;100.00
11621;BME280;5866;49.094;11.900;2023-02-04T07:07:41;97596.97;;;1.97;100.00
11621;BME280;5866;49.094;11.900;2023-02-04T07:10:09;97610.50;;;2.05;100.00
11621;BME280;5866;49.094;11.900;2023-02-04T07:12:37;97615.59;;;2.08;100.00
11621;BME280;5866;49.094;11.900;2023-02-04T07:15:06;97632.69;;;2.15;100.00
11621;BME280;5866;49.094;11.900;2023-02-04T07:17:34;97632.63;;;2.34;100.00
11621;BME280;5866;49.094;11.900;2023-02-04T07:20:01;97640.25;;;2.21;100.00
11621;BME280;5866;49.094;11.900;2023-02-04T07:22:29;97651.63;;;2.20;100.00
11621;BME280;5866;49.094;11.900;2023-02-04T07:24:56;97637.22;;;2.29;100.00
11621;BME280;5866;49.094;11.900;2023-02-04T07:27:24;97643.00;;;2.35;100.00
11621;BME280;5866;49.094;11.900;2023-02-04T07:29:51;97652.03;;;2.30;100.00
11621;BME280;5866;49.094;11.900;2023-02-04T07:32:20;97648.41;;;2.32;100.00
11621;BME280;5866;49.094;11.900;2023-02-04T07:34:47;97660.47;;;2.35;100.00
11621;BME280;5866;49.094;11.900;2023-02-04T07:37:15;97654.66;;;2.30;100.00
11621;BME280;5866;49.094;11.900;2023-02-04T07:39:42;97657.56;;;2.24;100.00
11621;BME280;5866;49.094;11.900;2023-02-04T07:42:10;97659.47;;;2.20;100.00
11621;BME280;5866;49.094;11.900;2023-02-04T07:44:37;97668.88;;;2.24;100.00
11621;BME280;5866;49.094;11.900;2023-02-04T07:47:05;97679.66;;;2.35;100.00
11621;BME280;5866;49.094;11.900;2023-02-04T07:49:34;97676.72;;;2.24;100.00
11621;BME280;5866;49.094;11.900;2023-02-04T07:52:01;97685.97;;;2.31;100.00
11621;BME280;5866;49.094;11.900;2023-02-04T07:54:29;97692.34;;;2.43;100.00
11621;BME280;5866;49.094;11.900;2023-02-04T07:56:56;97686.13;;;2.63;100.00
11621;BME280;5866;49.094;11.900;2023-02-04T07:59:23;97687.84;;;2.64;100.00
11621;BME280;5866;49.094;11.900;2023-02-04T08:01:51;97683.94;;;2.88;100.00
11621;BME280;5866;49.094;11.900;2023-02-04T08:04:19;97682.72;;;2.78;100.00
11621;BME280;5866;49.094;11.900;2023-02-04T08:06:47;97676.28;;;3.00;100.00
11621;BME280;5866;49.094;11.900;2023-02-04T08:09:15;97677.69;;;3.23;100.00
11621;BME280;5866;49.094;11.900;2023-02-04T08:11:42;97680.09;;;3.74;100.00
11621;BME280;5866;49.094;11.900;2023-02-04T08:14:10;97684.28;;;4.24;100.00
11621;BME280;5866;49.094;11.900;2023-02-04T08:16:38;97679.25;;;4.64;100.00
11621;BME280;5866;49.094;11.900;2023-02-04T08:19:05;97691.78;;;4.89;100.00
11621;BME280;5866;49.094;11.900;2023-02-04T08:21:33;97688.47;;;3.96;100.00
11621;BME280;5866;49.094;11.900;2023-02-04T08:24:03;97707.94;;;3.92;100.00
11621;BME280;5866;49.094;11.900;2023-02-04T08:26:30;97721.41;;;3.55;100.00
11621;BME280;5866;49.094;11.900;2023-02-04T08:28:58;97737.22;;;3.21;100.00
11621;BME280;5866;49.094;11.900;2023-02-04T08:31:25;97742.22;;;2.76;100.00
11621;BME280;5866;49.094;11.900;2023-02-04T08:33:53;97739.91;;;2.70;100.00
11621;BME280;5866;49.094;11.900;2023-02-04T08:36:21;97745.88;;;3.06;100.00
11621;BME280;5866;49.094;11.900;2023-02-04T08:38:48;97742.47;;;4.00;100.00
11621;BME280;5866;49.094;11.900;2023-02-04T08:41:17;97738.84;;;4.94;100.00
11621;BME280;5866;49.094;11.900;2023-02-04T08:43:44;97726.94;;;5.16;100.00
11621;BME280;5866;49.094;11.900;2023-02-04T08:46:12;97722.59;;;6.00;100.00
11621;BME280;5866;49.094;11.900;2023-02-04T08:48:39;97735.03;;;5.55;100.00
11621;BME280;5866;49.094;11.900;2023-02-04T08:51:07;97736.34;;;5.62;100.00
11621;BME280;5866;49.094;11.900;2023-02-04T08:53:34;97738.81;;;4.79;100.00
11621;BME280;5866;49.094;11.900;2023-02-04T08:56:03;97747.75;;;4.61;100.00
11621;BME280;5866;49.094;11.900;2023-02-04T08:58:32;97743.25;;;4.02;100.00
11621;BME280;5866;49.094;11.900;2023-02-04T09:00:59;97755.78;;;3.66;100.00
11621;BME280;5866;49.094;11.900;2023-02-04T09:03:27;97755.44;;;3.88;100.00
11621;BME280;5866;49.094;11.900;2023-02-04T09:05:54;97756.47;;;4.17;100.00
11621;BME280;5866;49.094;11.900;2023-02-04T09:08:22;97768.94;;;3.97;100.00
11621;BME280;5866;49.094;11.900;2023-02-04T09:10:50;97777.97;;;3.76;100.00
11621;BME280;5866;49.094;11.900;2023-02-04T09:13:17;97778.13;;;4.04;100.00
11621;BME280;5866;49.094;11.900;2023-02-04T09:15:46;97781.19;;;4.44;100.00
11621;BME280;5866;49.094;11.900;2023-02-04T09:18:14;97785.00;;;4.07;94.93
11621;BME280;5866;49.094;11.900;2023-02-04T09:20:43;97782.91;;;4.14;89.31
11621;BME280;5866;49.094;11.900;2023-02-04T09:23:11;97792.31;;;4.78;89.45
11621;BME280;5866;49.094;11.900;2023-02-04T09:25:39;97794.19;;;5.06;84.21
11621;BME280;5866;49.094;11.900;2023-02-04T09:28:09;97798.41;;;4.79;81.78
11621;BME280;5866;49.094;11.900;2023-02-04T09:30:38;97796.63;;;5.09;83.05
11621;BME280;5866;49.094;11.900;2023-02-04T09:33:08;97799.16;;;4.04;79.95
11621;BME280;5866;49.094;11.900;2023-02-04T09:35:36;97807.31;;;4.31;83.67
11621;BME280;5866;49.094;11.900;2023-02-04T09:38:04;97806.88;;;4.08;85.76
11621;BME280;5866;49.094;11.900;2023-02-04T09:40:33;97804.28;;;3.42;89.53
11621;BME280;5866;49.094;11.900;2023-02-04T09:43:03;97815.56;;;3.92;88.25
11621;BME280;5866;49.094;11.900;2023-02-04T09:45:33;97819.41;;;4.18;91.29
11621;BME280;5866;49.094;11.900;2023-02-04T09:48:02;97822.22;;;4.31;85.67
11621;BME280;5866;49.094;11.900;2023-02-04T09:50:32;97835.25;;;4.17;87.10
11621;BME280;5866;49.094;11.900;2023-02-04T09:53:02;97844.38;;;4.10;84.96
11621;BME280;5866;49.094;11.900;2023-02-04T09:55:33;97842.13;;;4.35;83.50
11621;BME280;5866;49.094;11.900;2023-02-04T09:58:01;97853.13;;;4.26;82.33
11621;BME280;5866;49.094;11.900;2023-02-04T10:00:29;97850.69;;;4.54;81.12
11621;BME280;5866;49.094;11.900;2023-02-04T10:02:59;97854.41;;;4.50;82.23
11621;BME280;5866;49.094;11.900;2023-02-04T10:05:30;97868.28;;;4.67;75.21
11621;BME280;5866;49.094;11.900;2023-02-04T10:08:00;97865.91;;;4.94;72.12
11621;BME280;5866;49.094;11.900;2023-02-04T10:10:27;97864.41;;;4.43;72.42
11621;BME280;5866;49.094;11.900;2023-02-04T10:12:58;97861.19;;;4.54;74.69
11621;BME280;5866;49.094;11.900;2023-02-04T10:15:27;97872.53;;;4.39;70.94
11621;BME280;5866;49.094;11.900;2023-02-04T10:17:59;97868.63;;;4.77;71.50
11621;BME280;5866;49.094;11.900;2023-02-04T10:20:27;97869.06;;;4.54;73.58
11621;BME280;5866;49.094;11.900;2023-02-04T10:22:56;97868.38;;;5.11;66.66
11621;BME280;5866;49.094;11.900;2023-02-04T10:25:25;97868.88;;;5.18;63.97
11621;BME280;5866;49.094;11.900;2023-02-04T10:27:54;97870.81;;;4.38;69.52
11621;BME280;5866;49.094;11.900;2023-02-04T10:30:24;97872.53;;;4.70;72.19
11621;BME280;5866;49.094;11.900;2023-02-04T10:32:53;97858.41;;;5.02;65.43
11621;BME280;5866;49.094;11.900;2023-02-04T10:35:22;97861.16;;;4.85;66.37
11621;BME280;5866;49.094;11.900;2023-02-04T10:38:02;97870.00;;;4.68;64.65
11621;BME280;5866;49.094;11.900;2023-02-04T10:40:33;97859.28;;;4.87;65.91
11621;BME280;5866;49.094;11.900;2023-02-04T10:43:06;97866.44;;;5.15;65.64
11621;BME280;5866;49.094;11.900;2023-02-04T10:45:35;97862.63;;;5.34;63.06
11621;BME280;5866;49.094;11.900;2023-02-04T10:48:04;97860.69;;;5.38;66.06
11621;BME280;5866;49.094;11.900;2023-02-04T10:50:33;97861.69;;;5.21;67.63
11621;BME280;5866;49.094;11.900;2023-02-04T10:53:00;97859.34;;;5.01;68.20
11621;BME280;5866;49.094;11.900;2023-02-04T10:55:44;97868.22;;;5.14;69.42
11621;BME280;5866;49.094;11.900;2023-02-04T10:58:16;97863.78;;;4.85;70.18
11621;BME280;5866;49.094;11.900;2023-02-04T11:00:44;97869.50;;;4.77;71.43
11621;BME280;5866;49.094;11.900;2023-02-04T11:03:15;97872.88;;;4.33;70.63
11621;BME280;5866;49.094;11.900;2023-02-04T11:05:45;97877.69;;;4.40;69.19
11621;BME280;5866;49.094;11.900;2023-02-04T11:08:21;97870.41;;;3.81;70.63
11621;BME280;5866;49.094;11.900;2023-02-04T11:10:54;97880.63;;;3.70;71.57
11621;BME280;5866;49.094;11.900;2023-02-04T11:13:24;97881.19;;;3.92;73.20
11621;BME280;5866;49.094;11.900;2023-02-04T11:16:08;97888.75;;;3.98;78.39
11621;BME280;5866;49.094;11.900;2023-02-04T11:18:45;97873.88;;;4.15;74.39
11621;BME280;5866;49.094;11.900;2023-02-04T11:21:14;97865.56;;;4.38;71.11
11621;BME280;5866;49.094;11.900;2023-02-04T11:23:48;97869.50;;;5.07;66.49
11621;BME280;5866;49.094;11.900;2023-02-04T11:26:19;97857.28;;;6.08;62.41
11621;BME280;5866;49.094;11.900;2023-02-04T11:29:27;97855.84;;;6.30;59.37
11621;BME280;5866;49.094;11.900;2023-02-04T11:32:02;97863.03;;;6.14;63.62
11621;BME280;5866;49.094;11.900;2023-02-04T11:34:43;97859.91;;;5.80;66.92
11621;BME280;5866;49.094;11.900;2023-02-04T11:37:27;97867.69;;;5.23;66.09
11621;BME280;5866;49.094;11.900;2023-02-04T11:39:57;97869.81;;;4.71;70.75
11621;BME280;5866;49.094;11.900;2023-02-04T11:42:30;97882.38;;;4.35;69.82
11621;BME280;5866;49.094;11.900;2023-02-04T11:45:00;97876.19;;;4.36;70.66
11621;BME280;5866;49.094;11.900;2023-02-04T11:47:34;97882.03;;;4.57;69.97
11621;BME280;5866;49.094;11.900;2023-02-04T11:50:09;97878.13;;;4.64;69.28
11621;BME280;5866;49.094;11.900;2023-02-04T11:52:39;97882.28;;;4.37;72.86
11621;BME280;5866;49.094;11.900;2023-02-04T11:55:09;97879.31;;;4.90;70.87
11621;BME280;5866;49.094;11.900;2023-02-04T11:57:40;97881.88;;;5.50;69.15
11621;BME280;5866;49.094;11.900;2023-02-04T12:00:16;97875.78;;;5.34;63.45
11621;BME280;5866;49.094;11.900;2023-02-04T12:02:45;97880.78;;;5.09;64.86
11621;BME280;5866;49.094;11.900;2023-02-04T12:05:15;97880.56;;;5.28;62.46
11621;BME280;5866;49.094;11.900;2023-02-04T12:07:44;97880.47;;;4.84;63.97
11621;BME280;5866;49.094;11.900;2023-02-04T12:10:13;97875.00;;;4.73;64.14
11621;BME280;5866;49.094;11.900;2023-02-04T12:12:48;97874.91;;;4.59;62.71
11621;BME280;5866;49.094;11.900;2023-02-04T12:15:21;97868.38;;;5.11;61.20
11621;BME280;5866;49.094;11.900;2023-02-04T12:18:03;97869.66;;;5.63;58.26
11621;BME280;5866;49.094;11.900;2023-02-04T12:20:32;97874.53;;;5.55;57.70
11621;BME280;5866;49.094;11.900;2023-02-04T12:23:00;97875.25;;;5.87;59.61
11621;BME280;5866;49.094;11.900;2023-02-04T12:25:27;97868.28;;;7.62;55.35
11621;BME280;5866;49.094;11.900;2023-02-04T12:27:57;97856.97;;;8.71;49.70
11621;BME280;5866;49.094;11.900;2023-02-04T12:30:25;97852.44;;;9.44;47.81
11621;BME280;5866;49.094;11.900;2023-02-04T12:32:53;97853.91;;;8.41;51.20
11621;BME280;5866;49.094;11.900;2023-02-04T12:35:20;97859.31;;;5.46;59.84
11621;BME280;5866;49.094;11.900;2023-02-04T12:37:47;97867.97;;;5.03;64.52
11621;BME280;5866;49.094;11.900;2023-02-04T12:40:17;97878.13;;;4.64;71.14
11621;BME280;5866;49.094;11.900;2023-02-04T12:42:44;97876.69;;;3.79;70.04
11621;BME280;5866;49.094;11.900;2023-02-04T12:45:15;97884.00;;;3.89;73.44
11621;BME280;5866;49.094;11.900;2023-02-04T12:47:43;97879.56;;;4.23;71.90
11621;BME280;5866;49.094;11.900;2023-02-04T12:50:13;97875.56;;;4.78;68.56
11621;BME280;5866;49.094;11.900;2023-02-04T12:52:40;97877.94;;;4.98;67.53
11621;BME280;5866;49.094;11.900;2023-02-04T12:55:08;97880.53;;;6.01;61.65
11621;BME280;5866;49.094;11.900;2023-02-04T12:57:35;97875.91;;;6.33;60.48
11621;BME280;5866;49.094;11.900;2023-02-04T13:00:03;97872.75;;;5.70;61.11
11621;BME280;5866;49.094;11.900;2023-02-04T13:02:32;97880.00;;;5.23;61.94
11621;BME280;5866;49.094;11.900;2023-02-04T13:05:00;97877.63;;;4.73;64.46
11621;BME280;5866;49.094;11.900;2023-02-04T13:07:27;97887.97;;;4.76;63.45
11621;BME280;5866;49.094;11.900;2023-02-04T13:09:55;97893.66;;;5.29;63.80